Time;durP1;ratioP1;P1;durP2;ratioP2;P2;SDS_P1;SDS_P2;PMS_P1;PMS_P2;Temp;Humidity;BMP_temperature;BMP_pressure;BME280_temperature;BME280_humidity;BME280_pressure;Samples;Min_cycle;Max_cycle;Signal;HPM_P1;HPM_P2
2023/08/26 00:02:24;;;;;;;;;1.00;1.00;;;;;-146.67;100.00;57155.34;5079191;28;8855;-77
2023/08/26 00:04:49;;;;;;;;;0.00;0.00;;;;;-146.67;100.00;57155.34;5084515;28;8710;-75
2023/08/26 00:07:15;;;;;;;;;1.00;1.00;;;;;-146.67;100.00;57155.34;5066256;28;10066;-75
2023/08/26 00:09:40;;;;;;;;;1.00;1.00;;;;;-146.67;100.00;57155.34;5083796;28;8867;-76
2023/08/26 00:12:06;;;;;;;;;2.00;0.00;;;;;-146.67;100.00;57155.34;5084625;28;8801;-76
2023/08/26 00:14:32;;;;;;;;;0.00;0.00;;;;;-146.67;100.00;57155.34;5084310;28;8797;-75
2023/08/26 00:16:57;;;;;;;;;0.00;0.00;;;;;-146.67;100.00;57155.34;5082559;28;9881;-75
2023/08/26 00:19:23;;;;;;;;;1.50;0.75;;;;;-146.67;100.00;57155.34;5083100;28;8789;-75
2023/08/26 00:21:50;;;;;;;;;2.00;1.00;;;;;-146.67;100.00;57155.34;5083922;28;8831;-75
2023/08/26 00:24:16;;;;;;;;;0.00;0.00;;;;;-146.67;100.00;57155.34;5084347;28;9805;-75
2023/08/26 00:26:41;;;;;;;;;0.00;0.00;;;;;-146.67;100.00;57155.34;5065893;28;10119;-76
2023/08/26 00:29:07;;;;;;;;;1.00;1.00;;;;;-146.67;100.00;57155.34;5084258;28;8819;-75
2023/08/26 00:31:32;;;;;;;;;1.00;1.00;;;;;-146.67;100.00;57155.34;5083864;28;8876;-75
2023/08/26 00:34:02;;;;;;;;;0.00;0.00;;;;;-146.67;100.00;57155.34;5083969;28;8809;-75
2023/08/26 00:36:27;;;;;;;;;0.00;0.00;;;;;-146.67;100.00;57155.34;5083691;28;8796;-76
2023/08/26 00:38:52;;;;;;;;;0.00;0.00;;;;;-146.67;100.00;57155.34;5083723;28;9847;-75
2023/08/26 00:41:18;;;;;;;;;0.50;0.50;;;;;-146.67;100.00;57155.34;5083639;28;8792;-75
2023/08/26 00:43:43;;;;;;;;;3.00;1.00;;;;;-146.67;100.00;57155.34;5083763;28;8781;-75
2023/08/26 00:46:09;;;;;;;;;1.25;1.00;;;;;-146.67;100.00;57155.34;5082353;28;10436;-75
2023/08/26 00:48:34;;;;;;;;;1.75;0.25;;;;;-146.67;100.00;57155.34;5083670;28;9524;-75
2023/08/26 00:51:00;;;;;;;;;0.75;0.75;;;;;-146.67;100.00;57155.34;5083086;28;8924;-75
2023/08/26 00:53:25;;;;;;;;;0.50;0.25;;;;;-146.67;100.00;57155.34;5082068;28;8852;-75
2023/08/26 00:55:51;;;;;;;;;0.25;0.25;;;;;-146.67;100.00;57155.34;5043938;28;1153382;-76
2023/08/26 00:58:18;;;;;;;;;0.00;0.00;;;;;-146.67;100.00;57155.34;5084853;28;8777;-75
2023/08/26 01:00:44;;;;;;;;;1.00;1.00;;;;;-146.67;100.00;57155.34;5084405;28;8797;-76
2023/08/26 01:03:10;;;;;;;;;0.50;0.50;;;;;-146.67;100.00;57155.34;5084775;28;10028;-75
2023/08/26 01:05:35;;;;;;;;;1.00;1.00;;;;;-146.67;100.00;57155.34;5084618;28;9990;-75
2023/08/26 01:08:03;;;;;;;;;0.00;0.00;;;;;-146.67;100.00;57155.34;5082807;28;8793;-76
2023/08/26 01:11:11;;;;;;;;;0.00;0.00;;;;;-146.67;100.00;57155.34;5058506;28;8842;-75
2023/08/26 01:14:12;;;;;;;;;0.00;0.00;;;;;-146.67;100.00;57155.34;5082776;28;9818;-76
2023/08/26 01:16:42;;;;;;;;;1.00;1.00;;;;;-146.67;100.00;57155.34;5005128;28;10295;-75
2023/08/26 01:19:29;;;;;;;;;2.00;1.00;;;;;-146.67;100.00;57155.34;5021575;28;9710;-75
2023/08/26 01:21:58;;;;;;;;;0.50;0.00;;;;;-146.67;100.00;57155.34;5021808;28;9696;-75
2023/08/26 01:24:25;;;;;;;;;1.25;0.75;;;;;-146.67;100.00;57155.34;5020240;28;10370;-75
2023/08/26 01:26:52;;;;;;;;;0.25;0.25;;;;;-146.67;100.00;57155.34;5019682;28;9948;-76
2023/08/26 01:29:18;;;;;;;;;0.00;0.00;;;;;-146.67;100.00;57155.34;5018989;28;9852;-75
2023/08/26 01:31:47;;;;;;;;;1.50;0.00;;;;;-146.67;100.00;57155.34;5020070;28;9876;-75
2023/08/26 01:34:26;;;;;;;;;0.25;0.25;;;;;-146.67;100.00;57155.34;5020288;28;8787;-75
2023/08/26 01:36:53;;;;;;;;;1.00;1.00;;;;;-146.67;100.00;57155.34;5020902;28;10185;-75
2023/08/26 01:39:20;;;;;;;;;0.00;0.00;;;;;-146.67;100.00;57155.34;5004662;28;10028;-75
2023/08/26 01:41:50;;;;;;;;;0.50;0.50;;;;;-146.67;100.00;57155.34;5021494;28;11049;-75
2023/08/26 01:44:17;;;;;;;;;2.00;0.00;;;;;-146.67;100.00;57155.34;5004691;28;9771;-75
2023/08/26 01:46:43;;;;;;;;;1.00;1.00;;;;;-146.67;100.00;57155.34;5021612;28;10099;-75
2023/08/26 01:49:09;;;;;;;;;0.75;0.75;;;;;-146.67;100.00;57155.34;5021295;28;9721;-75
2023/08/26 01:51:34;;;;;;;;;0.00;0.00;;;;;-146.67;100.00;57155.34;5019941;28;9529;-75
2023/08/26 01:54:00;;;;;;;;;0.00;0.00;;;;;-146.67;100.00;57155.34;5031267;28;8823;-75
2023/08/26 01:56:25;;;;;;;;;0.75;0.75;;;;;-146.67;100.00;57155.34;5062365;28;11022;-75
2023/08/26 01:58:50;;;;;;;;;0.00;0.00;;;;;-146.67;100.00;57155.34;5067799;28;8818;-75
2023/08/26 02:01:16;;;;;;;;;0.50;0.50;;;;;-146.67;100.00;57155.34;5083963;28;8875;-75
2023/08/26 02:03:41;;;;;;;;;1.00;1.00;;;;;-146.67;100.00;57155.34;5083380;28;8825;-76
2023/08/26 02:06:07;;;;;;;;;0.00;0.00;;;;;-146.67;100.00;57155.34;5083319;28;8836;-76
2023/08/26 02:08:32;;;;;;;;;0.00;0.00;;;;;-146.67;100.00;57155.34;5083623;28;8823;-75
2023/08/26 02:10:58;;;;;;;;;1.00;1.00;;;;;-146.67;100.00;57155.34;5083332;28;8881;-76
2023/08/26 02:13:24;;;;;;;;;1.00;1.00;;;;;-146.67;100.00;57155.34;5083444;28;8829;-75
2023/08/26 02:15:50;;;;;;;;;1.00;1.00;;;;;-146.67;100.00;57155.34;5083496;28;8764;-75
2023/08/26 02:18:15;;;;;;;;;0.25;0.25;;;;;-146.67;100.00;57155.34;5065140;28;9887;-75
2023/08/26 02:20:42;;;;;;;;;1.00;1.00;;;;;-146.67;100.00;57155.34;5082805;28;8781;-76
2023/08/26 02:23:07;;;;;;;;;0.00;0.00;;;;;-146.67;100.00;57155.34;5083201;28;8733;-75
2023/08/26 02:25:33;;;;;;;;;0.00;0.00;;;;;-146.67;100.00;57155.34;5083358;28;9788;-76
2023/08/26 02:27:58;;;;;;;;;0.75;0.75;;;;;-146.67;100.00;57155.34;5065034;28;9580;-76
2023/08/26 02:30:24;;;;;;;;;0.75;0.75;;;;;-146.67;100.00;57155.34;5083204;28;8793;-75
2023/08/26 02:32:49;;;;;;;;;0.00;0.00;;;;;-146.67;100.00;57155.34;5083262;28;8887;-76
2023/08/26 02:35:15;;;;;;;;;0.00;0.00;;;;;-146.67;100.00;57155.34;5065205;28;9934;-75
2023/08/26 02:37:40;;;;;;;;;1.50;0.00;;;;;-146.67;100.00;57155.34;5083054;28;8797;-75
2023/08/26 02:40:06;;;;;;;;;1.00;0.00;;;;;-146.67;100.00;57155.34;5083238;28;8805;-75
2023/08/26 02:42:32;;;;;;;;;0.50;0.00;;;;;-146.67;100.00;57155.34;5081437;28;8797;-75
2023/08/26 02:44:59;;;;;;;;;0.75;0.75;;;;;-146.67;100.00;57155.34;5083254;28;8784;-75
2023/08/26 02:47:24;;;;;;;;;0.50;0.25;;;;;-146.67;100.00;57155.34;5083134;28;9876;-76
2023/08/26 02:49:50;;;;;;;;;0.00;0.00;;;;;-146.67;100.00;57155.34;5082460;28;9982;-75
2023/08/26 02:52:15;;;;;;;;;0.75;0.00;;;;;-146.67;100.00;57155.34;5082322;28;8836;-76
2023/08/26 02:54:41;;;;;;;;;0.00;0.00;;;;;-146.67;100.00;57155.34;5083017;28;8803;-75
2023/08/26 02:57:06;;;;;;;;;1.25;0.00;;;;;-146.67;100.00;57155.34;5082693;28;8828;-76
2023/08/26 02:59:31;;;;;;;;;1.25;0.25;;;;;-146.67;100.00;57155.34;5082854;28;8819;-75
2023/08/26 03:02:04;;;;;;;;;0.00;0.00;;;;;-146.67;100.00;57155.34;5083037;28;8868;-75
2023/08/26 03:04:30;;;;;;;;;2.00;0.50;;;;;-146.67;100.00;57155.34;5082536;28;8816;-75
2023/08/26 03:06:56;;;;;;;;;0.00;0.00;;;;;-146.67;100.00;57155.34;5082614;28;9975;-75
2023/08/26 03:09:21;;;;;;;;;0.25;0.00;;;;;-146.67;100.00;57155.34;5082747;28;9775;-75
2023/08/26 03:11:47;;;;;;;;;0.25;0.00;;;;;-146.67;100.00;57155.34;5082273;28;9525;-75
2023/08/26 03:14:13;;;;;;;;;0.00;0.00;;;;;-146.67;100.00;57155.34;5082660;28;8793;-75
2023/08/26 03:16:40;;;;;;;;;0.00;0.00;;;;;-146.67;100.00;57155.34;5082792;28;8738;-76
2023/08/26 03:19:05;;;;;;;;;0.00;0.00;;;;;-146.67;100.00;57155.34;5082567;28;9958;-75
2023/08/26 03:21:31;;;;;;;;;1.50;0.00;;;;;-146.67;100.00;57155.34;5063425;28;9999;-75
2023/08/26 03:23:57;;;;;;;;;0.75;0.75;;;;;-146.67;100.00;57155.34;5081579;28;10254;-76
2023/08/26 03:26:23;;;;;;;;;0.00;0.00;;;;;-146.67;100.00;57155.34;5097502;28;10782;-75
2023/08/26 03:28:48;;;;;;;;;0.00;0.00;;;;;-146.67;100.00;57155.34;5081207;28;8820;-75
2023/08/26 03:31:14;;;;;;;;;1.00;0.00;;;;;-146.67;100.00;57155.34;5082795;28;8940;-76
2023/08/26 03:33:40;;;;;;;;;0.25;0.25;;;;;-146.67;100.00;57155.34;5082144;28;8870;-76
2023/08/26 03:36:06;;;;;;;;;0.00;0.00;;;;;-146.67;100.00;57155.34;5082744;28;8847;-75
2023/08/26 03:38:33;;;;;;;;;0.00;0.00;;;;;-146.67;100.00;57155.34;5081603;28;8764;-75
2023/08/26 03:41:01;;;;;;;;;0.00;0.00;;;;;-146.67;100.00;57155.34;5082153;28;9961;-75
2023/08/26 03:43:26;;;;;;;;;0.25;0.00;;;;;-146.67;100.00;57155.34;5082275;28;10131;-75
2023/08/26 03:45:51;;;;;;;;;0.00;0.00;;;;;-146.67;100.00;57155.34;5082406;28;9950;-75
2023/08/26 03:48:17;;;;;;;;;0.00;0.00;;;;;-146.67;100.00;57155.34;5082111;28;8805;-75
2023/08/26 03:50:50;;;;;;;;;1.25;0.25;;;;;-146.67;100.00;57155.34;5063658;28;8809;-75
2023/08/26 03:53:16;;;;;;;;;0.75;0.00;;;;;-146.67;100.00;57155.34;5090803;28;8754;-75
2023/08/26 03:55:42;;;;;;;;;0.00;0.00;;;;;-146.67;100.00;57155.34;5081510;28;10044;-75
2023/08/26 03:58:07;;;;;;;;;0.50;0.50;;;;;-146.67;100.00;57155.34;5082330;28;8722;-75
2023/08/26 04:00:33;;;;;;;;;2.00;1.00;;;;;-146.67;100.00;57155.34;5080575;28;9968;-75
2023/08/26 04:02:58;;;;;;;;;0.25;0.25;;;;;-146.67;100.00;57155.34;5080701;28;9888;-75
2023/08/26 04:05:24;;;;;;;;;0.00;0.00;;;;;-146.67;100.00;57155.34;5064136;28;8831;-75
2023/08/26 04:07:49;;;;;;;;;0.00;0.00;;;;;-146.67;100.00;57155.34;5081523;28;8801;-75
2023/08/26 04:10:15;;;;;;;;;1.00;1.00;;;;;-146.67;100.00;57155.34;5081419;28;8793;-75
2023/08/26 04:12:40;;;;;;;;;1.00;1.00;;;;;-146.67;100.00;57155.34;5081855;28;8817;-75
2023/08/26 04:15:06;;;;;;;;;0.75;0.75;;;;;-146.67;100.00;57155.34;5082821;28;8840;-75
2023/08/26 04:17:32;;;;;;;;;1.00;1.00;;;;;-146.67;100.00;57155.34;5085322;28;8781;-75
2023/08/26 04:19:59;;;;;;;;;0.50;0.50;;;;;-146.67;100.00;57155.34;5084919;28;9873;-75
2023/08/26 04:22:25;;;;;;;;;0.00;0.00;;;;;-146.67;100.00;57155.34;5085117;28;9730;-75
2023/08/26 04:24:50;;;;;;;;;0.50;0.00;;;;;-146.67;100.00;57155.34;5084993;28;10081;-75
2023/08/26 04:27:16;;;;;;;;;1.00;1.00;;;;;-146.67;100.00;57155.34;5085139;28;11439;-75
2023/08/26 04:29:42;;;;;;;;;0.00;0.00;;;;;-146.67;100.00;57155.34;5066866;28;8816;-75
2023/08/26 04:32:07;;;;;;;;;2.00;0.00;;;;;-146.67;100.00;57155.34;5083844;28;10040;-75
2023/08/26 04:34:34;;;;;;;;;1.00;1.00;;;;;-146.67;100.00;57155.34;5085105;28;8819;-75
2023/08/26 04:36:59;;;;;;;;;0.00;0.00;;;;;-146.67;100.00;57155.34;5083307;28;8793;-75
2023/08/26 04:39:25;;;;;;;;;1.00;1.00;;;;;-146.67;100.00;57155.34;5084859;28;10271;-75
2023/08/26 04:41:50;;;;;;;;;1.00;1.00;;;;;-146.67;100.00;57155.34;5084801;28;8789;-75
2023/08/26 04:44:19;;;;;;;;;0.25;0.25;;;;;-146.67;100.00;57155.34;5084995;28;9595;-75
2023/08/26 04:46:45;;;;;;;;;0.50;0.50;;;;;-146.67;100.00;57155.34;5085012;28;8793;-75
2023/08/26 04:49:10;;;;;;;;;2.00;1.00;;;;;-146.67;100.00;57155.34;5084822;28;10796;-75
2023/08/26 04:51:38;;;;;;;;;3.25;0.00;;;;;-146.67;100.00;57155.34;5084034;28;8841;-75
2023/08/26 04:54:03;;;;;;;;;1.00;1.00;;;;;-146.67;100.00;57155.34;5084131;28;8809;-75
2023/08/26 04:56:29;;;;;;;;;1.75;0.75;;;;;-146.67;100.00;57155.34;5084895;28;10217;-75
2023/08/26 04:58:54;;;;;;;;;2.00;0.00;;;;;-146.67;100.00;57155.34;5066551;28;8793;-75
2023/08/26 05:01:20;;;;;;;;;1.00;1.00;;;;;-146.67;100.00;57155.34;5083637;28;9888;-75
2023/08/26 05:03:46;;;;;;;;;0.25;0.25;;;;;-146.67;100.00;57155.34;5084506;28;8769;-75
2023/08/26 05:06:11;;;;;;;;;0.00;0.00;;;;;-146.67;100.00;57155.34;5084916;28;8846;-75
2023/08/26 05:08:36;;;;;;;;;0.50;0.50;;;;;-146.67;100.00;57155.34;5083928;28;8805;-75
2023/08/26 05:11:03;;;;;;;;;1.00;1.00;;;;;-146.67;100.00;57155.34;5084178;28;8817;-75
2023/08/26 05:13:29;;;;;;;;;0.25;0.25;;;;;-146.67;100.00;57155.34;5084662;28;8805;-74
2023/08/26 05:15:54;;;;;;;;;2.00;1.00;;;;;-146.67;100.00;57155.34;5084461;28;10116;-75
2023/08/26 05:18:21;;;;;;;;;0.00;0.00;;;;;-146.67;100.00;57155.34;5066315;28;8805;-75
2023/08/26 05:20:46;;;;;;;;;1.00;1.00;;;;;-146.67;100.00;57155.34;5082658;28;10093;-75
2023/08/26 05:23:12;;;;;;;;;0.00;0.00;;;;;-146.67;100.00;57155.34;5084009;28;10371;-75
2023/08/26 05:25:38;;;;;;;;;0.25;0.00;;;;;-146.67;100.00;57155.34;5082447;28;8783;-75
2023/08/26 05:28:04;;;;;;;;;0.75;0.75;;;;;-146.67;100.00;57155.34;5063931;28;8786;-75
2023/08/26 05:30:30;;;;;;;;;0.50;0.50;;;;;-146.67;100.00;57155.34;5083637;28;8710;-75
2023/08/26 05:32:55;;;;;;;;;1.00;1.00;;;;;-146.67;100.00;57155.34;5065364;28;10112;-75
2023/08/26 05:35:21;;;;;;;;;0.75;0.75;;;;;-146.67;100.00;57155.34;5083605;28;11400;-76
2023/08/26 05:37:46;;;;;;;;;1.00;1.00;;;;;-146.67;100.00;57155.34;5083646;28;8821;-75
2023/08/26 05:40:13;;;;;;;;;2.00;1.00;;;;;-146.67;100.00;57155.34;5083574;28;8798;-75
2023/08/26 05:42:39;;;;;;;;;0.25;0.25;;;;;-146.67;100.00;57155.34;5064682;28;8894;-75
2023/08/26 05:45:08;;;;;;;;;0.00;0.00;;;;;-146.67;100.00;57155.34;5086866;28;10162;-75
2023/08/26 05:47:34;;;;;;;;;1.50;0.25;;;;;-146.67;100.00;57155.34;5104089;28;8792;-75
2023/08/26 05:50:00;;;;;;;;;2.00;0.25;;;;;-146.67;100.00;57155.34;5084552;28;10416;-76
2023/08/26 05:52:25;;;;;;;;;0.00;0.00;;;;;-146.67;100.00;57155.34;5073629;28;11119;-76
2023/08/26 05:54:51;;;;;;;;;0.00;0.00;;;;;-146.67;100.00;57155.34;5066111;28;8828;-76
2023/08/26 05:57:17;;;;;;;;;0.75;0.75;;;;;-146.67;100.00;57155.34;5102166;28;8792;-76
2023/08/26 05:59:42;;;;;;;;;0.00;0.00;;;;;-146.67;100.00;57155.34;5103470;28;8807;-78
2023/08/26 06:02:13;;;;;;;;;0.00;0.00;;;;;-146.67;100.00;57155.34;5083314;28;8913;-76
2023/08/26 06:04:38;;;;;;;;;0.50;0.50;;;;;-146.67;100.00;57155.34;5081597;28;8790;-76
2023/08/26 06:07:03;;;;;;;;;0.00;0.00;;;;;-146.67;100.00;57155.34;5074149;28;10244;-76
2023/08/26 06:09:29;;;;;;;;;0.00;0.00;;;;;-146.67;100.00;57155.34;5082514;28;9861;-76
2023/08/26 06:11:55;;;;;;;;;1.50;0.00;;;;;-146.67;100.00;57155.34;5083145;28;9426;-76
2023/08/26 06:14:21;;;;;;;;;0.50;0.25;;;;;-146.67;100.00;57155.34;5083074;28;8718;-76
2023/08/26 06:16:47;;;;;;;;;0.00;0.00;;;;;-146.67;100.00;57155.34;5083540;28;10079;-75
2023/08/26 06:19:13;;;;;;;;;1.00;0.00;;;;;-146.67;100.00;57155.34;5097813;28;8973;-76
2023/08/26 06:21:38;;;;;;;;;0.00;0.00;;;;;-146.67;100.00;57155.34;5084375;28;9860;-76
2023/08/26 06:24:04;;;;;;;;;3.00;0.50;;;;;-146.67;100.00;57155.34;5085475;28;8874;-75
2023/08/26 06:26:29;;;;;;;;;0.00;0.00;;;;;-146.67;100.00;57155.34;5103403;28;8769;-76
2023/08/26 06:28:55;;;;;;;;;0.00;0.00;;;;;-146.67;100.00;57155.34;5097082;28;8852;-75
2023/08/26 06:31:20;;;;;;;;;0.00;0.00;;;;;-146.67;100.00;57155.34;5103472;28;8800;-75
2023/08/26 06:33:47;;;;;;;;;1.75;0.00;;;;;-146.67;100.00;57155.34;5102916;28;8808;-75
2023/08/26 06:36:12;;;;;;;;;1.00;0.00;;;;;-146.67;100.00;57155.34;5103691;28;8799;-75
2023/08/26 06:38:37;;;;;;;;;0.00;0.00;;;;;-146.67;100.00;57155.34;5101214;28;10158;-75
2023/08/26 06:41:03;;;;;;;;;0.00;0.00;;;;;-146.67;100.00;57155.34;5085411;28;8772;-75
2023/08/26 06:43:29;;;;;;;;;0.00;0.00;;;;;-146.67;100.00;57155.34;5103490;28;8820;-74
2023/08/26 06:45:54;;;;;;;;;1.00;1.00;;;;;-146.67;100.00;57155.34;5103536;28;8764;-75
2023/08/26 06:48:19;;;;;;;;;1.75;0.75;;;;;-146.67;100.00;57155.34;5101555;28;9954;-75
2023/08/26 06:50:49;;;;;;;;;3.00;0.00;;;;;-146.67;100.00;57155.34;5103117;28;8777;-75
2023/08/26 06:53:20;;;;;;;;;1.00;1.00;;;;;-146.67;100.00;57155.34;5102542;28;8998;-75
2023/08/26 06:55:47;;;;;;;;;0.00;0.00;;;;;-146.67;100.00;57155.34;5095529;28;10859;-75
2023/08/26 06:58:12;;;;;;;;;1.00;1.00;;;;;-146.67;100.00;57155.34;5064898;28;10083;-75
2023/08/26 07:00:37;;;;;;;;;0.00;0.00;;;;;-146.67;100.00;57155.34;5082822;28;9862;-75
2023/08/26 07:03:03;;;;;;;;;0.25;0.25;;;;;-146.67;100.00;57155.34;5082909;28;8898;-75
2023/08/26 07:05:28;;;;;;;;;0.00;0.00;;;;;-146.67;100.00;57155.34;5082286;28;9557;-75
2023/08/26 07:07:54;;;;;;;;;1.50;0.00;;;;;-146.67;100.00;57155.34;5082689;28;8800;-75
2023/08/26 07:10:19;;;;;;;;;0.50;0.50;;;;;-146.67;100.00;57155.34;5064193;28;8836;-75
2023/08/26 07:12:44;;;;;;;;;3.00;1.75;;;;;-146.67;100.00;57155.34;5082657;28;8896;-77
2023/08/26 07:15:10;;;;;;;;;7.75;6.50;;;;;-146.67;100.00;57155.34;5098140;28;8801;-75
2023/08/26 07:17:35;;;;;;;;;0.00;0.00;;;;;-146.67;100.00;57155.34;5097445;28;9856;-75
2023/08/26 07:20:00;;;;;;;;;2.00;0.50;;;;;-146.67;100.00;57155.34;5082052;28;8807;-75
2023/08/26 07:22:26;;;;;;;;;0.50;0.00;;;;;-146.67;100.00;57155.34;5082041;28;8812;-75
2023/08/26 07:24:52;;;;;;;;;0.00;0.00;;;;;-146.67;100.00;57155.34;5082480;28;8880;-75
2023/08/26 07:27:18;;;;;;;;;0.25;0.00;;;;;-146.67;100.00;57155.34;5082346;28;8808;-75
2023/08/26 07:29:54;;;;;;;;;0.75;0.75;;;;;-146.67;100.00;57155.34;5082091;28;8808;-75
2023/08/26 07:32:24;;;;;;;;;0.00;0.00;;;;;-146.67;100.00;57155.34;5082050;28;8822;-75
2023/08/26 07:34:52;;;;;;;;;0.00;0.00;;;;;-146.67;100.00;57155.34;5097472;28;9696;-75
2023/08/26 07:37:18;;;;;;;;;2.00;0.00;;;;;-146.67;100.00;57155.34;5090840;28;9726;-75
2023/08/26 07:39:44;;;;;;;;;2.00;0.00;;;;;-146.67;100.00;57155.34;5102222;28;9888;-75
2023/08/26 07:42:09;;;;;;;;;1.00;1.00;;;;;-146.67;100.00;57155.34;5089462;28;8790;-75
2023/08/26 07:44:34;;;;;;;;;0.00;0.00;;;;;-146.67;100.00;57155.34;5063950;28;8858;-75
2023/08/26 07:47:00;;;;;;;;;0.00;0.00;;;;;-146.67;100.00;57155.34;5062845;28;9829;-77
2023/08/26 07:49:25;;;;;;;;;1.00;0.00;;;;;-146.67;100.00;57155.34;5080531;28;9069;-79
2023/08/26 07:51:51;;;;;;;;;0.00;0.00;;;;;-146.67;100.00;57155.34;5066770;28;8820;-78
2023/08/26 07:54:16;;;;;;;;;0.00;0.00;;;;;-146.67;100.00;57155.34;5067279;28;8807;-76
2023/08/26 07:56:41;;;;;;;;;1.00;0.00;;;;;-146.67;100.00;57155.34;5083644;28;9870;-76
2023/08/26 07:59:07;;;;;;;;;2.50;0.00;;;;;-146.67;100.00;57155.34;5067119;28;8885;-77
2023/08/26 08:01:32;;;;;;;;;0.00;0.00;;;;;-146.67;100.00;57155.34;5066689;28;9542;-76
2023/08/26 08:03:57;;;;;;;;;2.00;0.00;;;;;-146.67;100.00;57155.34;5085463;28;8897;-75
2023/08/26 08:06:23;;;;;;;;;0.00;0.00;;;;;-146.67;100.00;57155.34;5085235;28;8797;-76
2023/08/26 08:08:48;;;;;;;;;0.00;0.00;;;;;-146.67;100.00;57155.34;5083251;28;8871;-76
2023/08/26 08:11:14;;;;;;;;;0.00;0.00;;;;;-146.67;100.00;57155.34;5084348;28;9556;-77
2023/08/26 08:13:39;;;;;;;;;0.00;0.00;;;;;-146.67;100.00;57155.34;5084886;28;8848;-75
2023/08/26 08:16:04;;;;;;;;;1.00;0.00;;;;;-146.67;100.00;57155.34;5066888;28;9858;-76
2023/08/26 08:18:30;;;;;;;;;0.00;0.00;;;;;-146.67;100.00;57155.34;5085541;28;8847;-76
2023/08/26 08:20:55;;;;;;;;;0.00;0.00;;;;;-146.67;100.00;57155.34;5066568;28;8832;-76
2023/08/26 08:23:20;;;;;;;;;0.00;0.00;;;;;-146.67;100.00;57155.34;5067299;28;9095;-76
2023/08/26 08:25:46;;;;;;;;;2.00;0.00;;;;;-146.67;100.00;57155.34;5085167;28;8789;-76
2023/08/26 08:28:11;;;;;;;;;1.00;0.00;;;;;-146.67;100.00;57155.34;5085324;28;8797;-76
2023/08/26 08:30:37;;;;;;;;;0.00;0.00;;;;;-146.67;100.00;57155.34;5085068;28;8785;-76
2023/08/26 08:33:02;;;;;;;;;0.00;0.00;;;;;-146.67;100.00;57155.34;5067084;28;8820;-76
2023/08/26 08:35:28;;;;;;;;;0.00;0.00;;;;;-146.67;100.00;57155.34;5067206;28;10180;-76
2023/08/26 08:37:53;;;;;;;;;0.75;0.75;;;;;-146.67;100.00;57155.34;5083367;28;8801;-76
2023/08/26 08:40:18;;;;;;;;;0.00;0.00;;;;;-146.67;100.00;57155.34;5066740;28;8793;-76
2023/08/26 08:42:47;;;;;;;;;0.00;0.00;;;;;-146.67;100.00;57155.34;5085248;28;9600;-76
2023/08/26 08:45:13;;;;;;;;;0.33;0.00;;;;;-146.67;100.00;57155.34;5083370;28;10068;-76
2023/08/26 08:47:39;;;;;;;;;0.00;0.00;;;;;-146.67;100.00;57155.34;5066781;28;9495;-76
2023/08/26 08:50:05;;;;;;;;;0.00;0.00;;;;;-146.67;100.00;57155.34;5084343;28;8793;-76
2023/08/26 08:52:32;;;;;;;;;1.25;0.00;;;;;-146.67;100.00;57155.34;5084596;28;8773;-76
2023/08/26 08:54:58;;;;;;;;;2.00;1.00;;;;;-146.67;100.00;57155.34;5073672;28;9826;-76
2023/08/26 08:57:29;;;;;;;;;1.00;1.00;;;;;-146.67;100.00;57155.34;5046745;28;9572;-76
2023/08/26 08:59:57;;;;;;;;;0.00;0.00;;;;;-146.67;100.00;57155.34;5064173;28;8794;-76
2023/08/26 09:02:23;;;;;;;;;0.00;0.00;;;;;-146.67;100.00;57155.34;5046492;28;9621;-75
2023/08/26 09:04:49;;;;;;;;;0.00;0.00;;;;;-146.67;100.00;57155.34;5064366;28;9794;-76
2023/08/26 09:07:17;;;;;;;;;0.00;0.00;;;;;-146.67;100.00;57155.34;5064338;28;8740;-76
2023/08/26 09:09:42;;;;;;;;;0.00;0.00;;;;;-146.67;100.00;57155.34;5063624;28;9531;-76
2023/08/26 09:12:08;;;;;;;;;0.00;0.00;;;;;-146.67;100.00;57155.34;5046423;28;9770;-76
2023/08/26 09:14:33;;;;;;;;;4.00;0.00;;;;;-146.67;100.00;57155.34;5064567;28;8870;-75
2023/08/26 09:17:22;;;;;;;;;0.00;0.00;;;;;-146.67;100.00;57155.34;5077198;28;9171;-74
2023/08/26 09:20:06;;;;;;;;;3.00;0.00;;;;;-146.67;100.00;57155.34;5083605;28;8790;-75
2023/08/26 09:22:32;;;;;;;;;0.00;0.00;;;;;-146.67;100.00;57155.34;5065494;28;9568;-74
2023/08/26 09:25:00;;;;;;;;;0.00;0.00;;;;;-146.67;100.00;57155.34;5083954;28;9732;-74
2023/08/26 09:27:25;;;;;;;;;1.50;0.00;;;;;-146.67;100.00;57155.34;5083874;28;9695;-75
2023/08/26 09:29:52;;;;;;;;;0.00;0.00;;;;;-146.67;100.00;57155.34;5083994;28;9513;-74
2023/08/26 09:32:40;;;;;;;;;0.00;0.00;;;;;-146.67;100.00;57155.34;5084009;28;8793;-75
2023/08/26 09:35:11;;;;;;;;;0.00;0.00;;;;;-146.67;100.00;57155.34;5083814;28;9709;-75
2023/08/26 09:37:37;;;;;;;;;1.00;0.00;;;;;-146.67;100.00;57155.34;5065745;28;9578;-75
2023/08/26 09:40:04;;;;;;;;;1.00;0.00;;;;;-146.67;100.00;57155.34;5083715;28;9350;-75
2023/08/26 09:42:30;;;;;;;;;0.00;0.00;;;;;-146.67;100.00;57155.34;5065555;28;9548;-75
2023/08/26 09:44:56;;;;;;;;;0.00;0.00;;;;;-146.67;100.00;57155.34;5083455;28;9624;-74
2023/08/26 09:47:26;;;;;;;;;0.00;0.00;;;;;-146.67;100.00;57155.34;5084070;28;8781;-75
2023/08/26 09:49:52;;;;;;;;;0.00;0.00;;;;;-146.67;100.00;57155.34;5083246;28;9478;-75
2023/08/26 09:52:17;;;;;;;;;0.00;0.00;;;;;-146.67;100.00;57155.34;5065244;28;9693;-75
2023/08/26 09:54:45;;;;;;;;;0.00;0.00;;;;;-146.67;100.00;57155.34;5092411;28;8792;-75
2023/08/26 09:57:11;;;;;;;;;0.00;0.00;;;;;-146.67;100.00;57155.34;5103712;28;8721;-75
2023/08/26 09:59:37;;;;;;;;;0.00;0.00;;;;;-146.67;100.00;57155.34;5104009;28;9563;-75
2023/08/26 10:02:15;;;;;;;;;0.33;0.00;;;;;-146.67;100.00;57155.34;5104189;28;8776;-74
2023/08/26 10:04:41;;;;;;;;;1.00;0.00;;;;;-146.67;100.00;57155.34;5104243;28;8813;-74
2023/08/26 10:07:07;;;;;;;;;0.00;0.00;;;;;-146.67;100.00;57155.34;5103729;28;9264;-75
2023/08/26 10:10:04;;;;;;;;;0.00;0.00;;;;;-146.67;100.00;57155.34;5085052;28;8803;-74
2023/08/26 10:12:44;;;;;;;;;0.00;0.00;;;;;-146.67;100.00;57155.34;5082524;28;8793;-76
2023/08/26 10:15:17;;;;;;;;;0.00;0.00;;;;;-146.67;100.00;57155.34;5065618;28;10282;-76
2023/08/26 10:17:44;;;;;;;;;0.00;0.00;;;;;-146.67;100.00;57155.34;5065659;28;9378;-76
2023/08/26 10:20:11;;;;;;;;;2.33;0.00;;;;;-146.67;100.00;57155.34;5082478;28;9396;-77
2023/08/26 10:22:37;;;;;;;;;0.00;0.00;;;;;-146.67;100.00;57155.34;5083297;28;9316;-75
2023/08/26 10:25:05;;;;;;;;;0.00;0.00;;;;;-146.67;100.00;57155.34;5083349;28;9511;-76
2023/08/26 10:27:30;;;;;;;;;1.00;0.00;;;;;-146.67;100.00;57155.34;5064441;28;9247;-75
2023/08/26 10:30:08;;;;;;;;;0.67;0.00;;;;;-146.67;100.00;57155.34;5082299;28;9432;-75
2023/08/26 10:32:43;;;;;;;;;1.00;0.00;;;;;-146.67;100.00;57155.34;5085890;28;8763;-77
2023/08/26 10:35:14;;;;;;;;;0.67;0.67;;;;;-146.67;100.00;57155.34;5082725;28;9532;-75
2023/08/26 10:37:40;;;;;;;;;0.00;0.00;;;;;-146.67;100.00;57155.34;5073500;28;9286;-75
2023/08/26 10:40:12;;;;;;;;;1.00;0.00;;;;;-146.67;100.00;57155.34;5103226;28;9188;-75
2023/08/26 10:42:38;;;;;;;;;0.00;0.00;;;;;-146.67;100.00;57155.34;5086107;28;9122;-75
2023/08/26 10:45:14;;;;;;;;;5.00;4.67;;;;;-146.67;100.00;57155.34;5082913;28;9395;-76
2023/08/26 10:47:45;;;;;;;;;0.00;0.00;;;;;-146.67;100.00;57155.34;5065128;28;9321;-75
2023/08/26 10:50:21;;;;;;;;;0.00;0.00;;;;;-146.67;100.00;57155.34;5082581;28;9414;-76
2023/08/26 10:53:13;;;;;;;;;2.00;0.00;;;;;-146.67;100.00;57155.34;5064716;28;9219;-76
2023/08/26 10:55:38;;;;;;;;;0.00;0.00;;;;;-146.67;100.00;57155.34;5082130;28;9380;-76
2023/08/26 10:58:07;;;;;;;;;1.33;1.33;;;;;-146.67;100.00;57155.34;5098659;28;9188;-76
2023/08/26 11:00:33;;;;;;;;;1.33;1.33;;;;;-146.67;100.00;57155.34;5082706;28;8774;-76
2023/08/26 11:03:00;;;;;;;;;0.00;0.00;;;;;-146.67;100.00;57155.34;5082841;28;9320;-76
2023/08/26 11:05:25;;;;;;;;;0.00;0.00;;;;;-146.67;100.00;57155.34;5082556;28;9153;-77
2023/08/26 11:07:51;;;;;;;;;1.00;1.00;;;;;-146.67;100.00;57155.34;5082466;28;8857;-76
2023/08/26 11:10:30;;;;;;;;;0.00;0.00;;;;;-146.67;100.00;57155.34;5063633;28;8819;-76
2023/08/26 11:12:55;;;;;;;;;0.00;0.00;;;;;-146.67;100.00;57155.34;5080328;28;8777;-75
2023/08/26 11:15:22;;;;;;;;;0.00;0.00;;;;;-146.67;100.00;57155.34;5082065;28;9249;-77
2023/08/26 11:17:48;;;;;;;;;1.00;0.00;;;;;-146.67;100.00;57155.34;5064047;28;8880;-77